Kezdőlap
METAR-TAF:

METAR-TAF

Repülőterek :

Kangerlussuaq, Grönland

földrajzi szélesség: 67-01N, földrajzi hosszúság: 050-42W, magasság: 50 m

Jelenlegi meteorológiai megfigyelések

A jelentés 26 perccel ezelõtt készült, 09:50 UTC
Északkeleti szél 8 kt
Hőmérséklet -17°C
Páratartalom 71%
Légköri nyomás 1011 hPa
Látótávolság 10 km, vagy több

METAR: BGSF 050950Z AUTO 04008KT 9999NDV BKN026/// M17/M21 Q1011

Idő: 07:16 (10:16 UTC)

Előrejelzés

A jelentés 5 órával és 15 perccel ezelõtt készült, 05:01 UTC
Az előrejelzés 05-én 06 óra UTC és 06-én 12 óra UTC között érvényes
Északkeleti szél 6 kt
Látótávolság 10 km, vagy több
Kevés felhő 15000 lábon
05-én 06 óra UTC és 05-én 11 óra UTC között ideiglenes
Szakadozott felhőzet 2000 lábon

TAF: BGSF 050501Z 0506/0612 05006KT 9999 FEW150 TEMPO 0506/0511 BKN020

Meteorológiai megfigyelések és előrejelzések több, mint 4000 repülőtéren (METAR és TAF jelentéseket).

A térképen piros és sárga pontok jelzik az elérhető meteorológiai állomásokat.

Mozgassa az egeret a pont fölött, hogy megjelenjen az állomás neve.

Azután kattintson az időjárási megfigyelések és előrejelzések megtekintéséhez.

A térkép megváltoztatása: kattintson a fekete keresztel jelölt zöld gombra ráközelítéshez, a vonallal jelölt zöld gombra távolításhoz, vagy a zöld nyilakra a szomszédos térképek eléréséhez.


METAR-TAF: